Time;durP1;ratioP1;P1;durP2;ratioP2;P2;SDS_P1;SDS_P2;PMS_P1;PMS_P2;Temp;Humidity;BMP_temperature;BMP_pressure;BME280_temperature;BME280_humidity;BME280_pressure;Samples;Min_cycle;Max_cycle;Signal;HPM_P1;HPM_P2
2021/04/10 00:02:15;;;;;;;3.37;2.80;;;13.50;59.20;;;;;;5104606;27;20527;-54
2021/04/10 00:04:41;;;;;;;4.33;2.40;;;13.40;57.60;;;;;;5098140;27;20194;-54
2021/04/10 00:07:07;;;;;;;2.47;2.23;;;13.60;57.00;;;;;;5106846;27;20196;-54
2021/04/10 00:09:32;;;;;;;3.13;2.30;;;13.50;57.10;;;;;;5111423;27;20671;-53
2021/04/10 00:11:58;;;;;;;3.50;2.73;;;13.50;56.90;;;;;;5104398;27;20322;-54
2021/04/10 00:14:25;;;;;;;6.20;3.30;;;13.30;56.50;;;;;;5100686;27;20207;-53
2021/04/10 00:16:51;;;;;;;2.50;2.30;;;13.40;56.70;;;;;;5106397;27;20383;-54
2021/04/10 00:19:16;;;;;;;2.53;2.10;;;13.40;56.60;;;;;;5102385;27;20807;-53
2021/04/10 00:21:42;;;;;;;4.80;2.50;;;13.40;56.60;;;;;;5104367;27;20173;-53
2021/04/10 00:24:09;;;;;;;3.10;2.60;;;13.70;56.90;;;;;;5102437;27;20179;-53
2021/04/10 00:26:35;;;;;;;4.15;2.45;;;13.40;56.90;;;;;;5125563;27;20635;-53
2021/04/10 00:29:01;;;;;;;3.40;2.80;;;13.60;58.00;;;;;;5099298;27;20211;-54
2021/04/10 00:31:26;;;;;;;4.80;4.20;;;13.20;59.20;;;;;;5102311;27;20322;-53
2021/04/10 00:33:52;;;;;;;3.83;2.33;;;13.20;59.40;;;;;;5110107;27;20658;-54
2021/04/10 00:36:17;;;;;;;2.40;2.20;;;13.30;59.30;;;;;;5108469;27;20195;-54
2021/04/10 00:38:43;;;;;;;3.77;2.53;;;13.30;58.30;;;;;;5103438;27;20185;-53
2021/04/10 00:41:11;;;;;;;3.60;2.10;;;13.30;58.30;;;;;;5105828;27;20207;-53
2021/04/10 00:43:37;;;;;;;3.80;2.20;;;13.10;58.20;;;;;;5106528;27;20193;-53
2021/04/10 00:46:02;;;;;;;2.70;2.20;;;13.10;58.30;;;;;;5105435;27;20250;-54
2021/04/10 00:48:28;;;;;;;3.10;2.27;;;13.10;58.30;;;;;;5108127;27;20186;-54
2021/04/10 00:50:55;;;;;;;4.33;2.00;;;13.00;58.70;;;;;;5103107;27;20444;-53
2021/04/10 00:53:23;;;;;;;3.65;1.80;;;13.00;58.10;;;;;;5103142;27;20181;-54
2021/04/10 00:55:51;;;;;;;2.83;2.00;;;13.00;57.70;;;;;;5101315;27;20195;-54
2021/04/10 00:58:17;;;;;;;3.10;2.00;;;13.20;57.60;;;;;;5101310;28;20210;-54
2021/04/10 01:00:43;;;;;;;2.43;2.23;;;13.40;57.50;;;;;;5104329;27;20258;-55
2021/04/10 01:03:09;;;;;;;1.88;1.50;;;13.40;57.50;;;;;;5098009;27;20930;-54
2021/04/10 01:05:38;;;;;;;2.60;2.30;;;13.30;57.20;;;;;;5098346;28;20189;-55
2021/04/10 01:08:04;;;;;;;4.60;2.05;;;13.00;56.60;;;;;;5101222;27;20186;-54
2021/04/10 01:10:30;;;;;;;2.22;1.95;;;13.40;57.50;;;;;;5101057;27;20236;-54
2021/04/10 01:13:24;;;;;;;4.63;2.30;;;13.60;57.00;;;;;;5102145;27;20258;-54
2021/04/10 01:16:20;;;;;;;1.95;1.75;;;13.80;56.90;;;;;;5099777;27;20205;-52
2021/04/10 01:19:10;;;;;;;2.90;2.00;;;13.70;56.70;;;;;;5102324;27;20220;-53
2021/04/10 01:21:59;;;;;;;3.47;1.88;;;13.60;56.70;;;;;;5102080;28;20182;-53
2021/04/10 01:24:40;;;;;;;1.67;1.58;;;13.70;56.80;;;;;;5055935;28;20224;-53
2021/04/10 01:27:11;;;;;;;1.75;1.55;;;13.50;56.60;;;;;;5110321;28;20674;-53
2021/04/10 01:29:45;;;;;;;5.55;2.03;;;13.70;56.70;;;;;;5099966;28;20213;-53
2021/04/10 01:32:12;;;;;;;3.05;1.60;;;13.90;56.80;;;;;;5094123;28;20237;-53
2021/04/10 01:34:43;;;;;;;3.85;1.75;;;13.70;56.80;;;;;;5105682;28;20189;-53
2021/04/10 01:37:13;;;;;;;2.95;1.67;;;13.50;56.70;;;;;;5105641;28;20705;-53
2021/04/10 01:39:42;;;;;;;1.70;1.60;;;13.60;56.80;;;;;;5109551;28;20209;-53
2021/04/10 01:42:09;;;;;;;3.05;1.60;;;13.70;56.90;;;;;;5106511;28;20585;-53
2021/04/10 01:44:37;;;;;;;3.15;1.70;;;13.60;57.00;;;;;;5109461;27;20198;-53
2021/04/10 01:47:04;;;;;;;6.47;2.40;;;13.70;56.90;;;;;;5106229;27;20190;-53
2021/04/10 01:49:31;;;;;;;2.75;2.03;;;13.80;57.10;;;;;;5108199;27;20205;-53
2021/04/10 01:51:57;;;;;;;2.85;1.98;;;13.60;57.20;;;;;;5099096;27;20194;-52
2021/04/10 01:54:23;;;;;;;2.97;1.65;;;13.40;57.20;;;;;;5106832;27;20182;-53
2021/04/10 01:56:50;;;;;;;4.75;1.80;;;13.70;57.50;;;;;;5112224;27;20569;-53
2021/04/10 01:59:16;;;;;;;2.03;1.63;;;13.50;57.50;;;;;;5104856;27;20558;-53
2021/04/10 02:01:46;;;;;;;2.78;1.40;;;13.60;57.60;;;;;;5103933;28;20323;-53
2021/04/10 02:04:13;;;;;;;2.47;1.70;;;13.80;57.80;;;;;;5105605;27;20277;-52
2021/04/10 02:06:40;;;;;;;2.00;1.50;;;13.50;57.50;;;;;;5125376;27;20178;-52
2021/04/10 02:09:06;;;;;;;1.60;1.50;;;13.80;57.90;;;;;;5107414;27;20206;-53
2021/04/10 02:11:33;;;;;;;2.10;1.90;;;13.50;57.60;;;;;;5111898;27;20191;-53
2021/04/10 02:14:01;;;;;;;2.28;1.73;;;13.80;58.00;;;;;;5104417;27;20190;-53
2021/04/10 02:16:27;;;;;;;2.20;1.52;;;13.50;58.00;;;;;;5113120;27;20194;-53
2021/04/10 02:18:53;;;;;;;2.40;1.87;;;13.50;58.20;;;;;;5108793;27;20565;-53
2021/04/10 02:21:25;;;;;;;3.10;1.52;;;13.30;58.10;;;;;;5105885;27;20519;-53
2021/04/10 02:23:53;;;;;;;1.70;1.60;;;13.60;58.30;;;;;;5103422;27;20613;-53
2021/04/10 02:26:19;;;;;;;2.55;1.55;;;13.20;58.10;;;;;;5106721;27;20177;-53
2021/04/10 02:28:44;;;;;;;3.23;1.70;;;13.60;58.40;;;;;;5108209;27;20186;-53
2021/04/10 02:31:28;;;;;;;6.87;1.50;;;13.40;58.30;;;;;;5113625;27;20505;-52
2021/04/10 02:33:58;;;;;;;3.92;1.60;;;13.50;58.50;;;;;;5104500;27;20423;-53
2021/04/10 02:36:24;;;;;;;2.85;1.60;;;13.00;58.20;;;;;;5113503;27;20206;-53
2021/04/10 02:38:53;;;;;;;3.70;1.85;;;13.20;58.50;;;;;;5110855;27;20177;-53
2021/04/10 02:41:24;;;;;;;2.08;1.45;;;13.30;58.70;;;;;;5104140;28;20176;-53
2021/04/10 02:43:59;;;;;;;2.70;1.15;;;13.60;59.00;;;;;;5109543;27;20595;-53
2021/04/10 02:46:28;;;;;;;2.22;2.00;;;13.30;59.00;;;;;;5108188;28;20201;-53
2021/04/10 02:49:06;;;;;;;2.03;1.83;;;13.30;59.20;;;;;;5102793;27;20214;-53
2021/04/10 02:51:36;;;;;;;2.75;1.70;;;13.20;59.20;;;;;;5106917;27;20230;-53
2021/04/10 02:54:04;;;;;;;1.90;1.77;;;13.00;59.20;;;;;;5104214;27;20183;-53
2021/04/10 02:56:33;;;;;;;1.30;1.20;;;13.30;59.50;;;;;;5096927;27;20182;-53
2021/04/10 02:59:00;;;;;;;2.10;1.90;;;13.40;59.60;;;;;;5104846;27;20231;-53
2021/04/10 03:01:31;;;;;;;1.88;1.27;;;13.30;59.60;;;;;;5103152;28;20266;-53
2021/04/10 03:03:57;;;;;;;3.08;1.60;;;13.30;59.70;;;;;;5102030;28;20285;-52
2021/04/10 03:06:31;;;;;;;4.22;1.67;;;13.40;59.90;;;;;;5110041;27;20413;-53
2021/04/10 03:08:58;;;;;;;1.40;1.30;;;13.10;59.80;;;;;;5105913;27;20681;-53
2021/04/10 03:11:25;;;;;;;2.45;1.73;;;13.30;60.10;;;;;;5110738;28;20192;-53
2021/04/10 03:13:52;;;;;;;2.97;1.27;;;13.10;60.10;;;;;;5103411;27;20191;-53
2021/04/10 03:16:18;;;;;;;3.35;1.60;;;13.20;60.30;;;;;;5110152;28;20199;-53
2021/04/10 03:18:47;;;;;;;2.45;1.73;;;13.20;60.30;;;;;;5112732;27;20581;-53
2021/04/10 03:21:13;;;;;;;2.33;1.45;;;13.30;60.50;;;;;;5109277;27;20208;-53
2021/04/10 03:23:39;;;;;;;2.80;1.40;;;13.40;60.60;;;;;;5116128;27;20182;-53
2021/04/10 03:26:06;;;;;;;1.67;1.43;;;13.40;60.60;;;;;;5106375;27;20182;-53
2021/04/10 03:28:32;;;;;;;3.50;1.65;;;13.60;61.10;;;;;;5111954;27;20721;-52
2021/04/10 03:31:02;;;;;;;2.20;2.00;;;13.30;60.90;;;;;;5103855;27;20244;-52
2021/04/10 03:33:31;;;;;;;1.88;1.30;;;13.50;61.20;;;;;;5105503;28;20212;-52
2021/04/10 03:35:57;;;;;;;3.42;1.65;;;13.50;61.30;;;;;;5111142;27;20222;-53
2021/04/10 03:38:23;;;;;;;3.27;1.90;;;13.40;61.30;;;;;;5123857;27;20248;-52
2021/04/10 03:40:48;;;;;;;2.13;1.40;;;13.30;61.50;;;;;;5107984;27;20505;-53
2021/04/10 03:43:14;;;;;;;1.70;1.20;;;13.30;62.00;;;;;;5109888;27;20248;-53
2021/04/10 03:45:40;;;;;;;2.47;1.20;;;13.00;61.90;;;;;;5129907;27;20185;-53
2021/04/10 03:48:06;;;;;;;1.57;1.40;;;13.30;62.70;;;;;;5112044;27;20282;-53
2021/04/10 03:50:31;;;;;;;2.27;1.60;;;13.30;63.10;;;;;;5107566;28;20662;-53
2021/04/10 03:53:00;;;;;;;3.13;1.50;;;13.30;63.60;;;;;;5112940;27;20427;-53
2021/04/10 03:55:25;;;;;;;1.55;1.45;;;13.40;64.20;;;;;;5100679;28;20182;-52
2021/04/10 03:57:52;;;;;;;2.17;1.60;;;13.50;64.90;;;;;;5128607;27;20213;-53
2021/04/10 04:00:18;;;;;;;3.22;1.88;;;13.10;65.20;;;;;;5100481;28;20202;-52
2021/04/10 04:02:44;;;;;;;3.50;1.70;;;13.20;66.10;;;;;;5103816;27;20216;-52
2021/04/10 04:05:11;;;;;;;2.60;1.50;;;13.20;66.70;;;;;;5114038;27;20225;-53
2021/04/10 04:07:36;;;;;;;1.60;1.30;;;13.10;66.80;;;;;;5100554;28;20280;-53
2021/04/10 04:10:03;;;;;;;4.47;1.83;;;13.20;66.90;;;;;;5103385;27;20289;-53
2021/04/10 04:12:29;;;;;;;4.32;1.80;;;13.10;67.20;;;;;;5096504;28;20205;-52
2021/04/10 04:14:54;;;;;;;2.93;1.50;;;13.30;67.70;;;;;;5108037;27;20638;-53
2021/04/10 04:17:20;;;;;;;2.50;1.40;;;13.00;68.20;;;;;;5110798;27;20209;-53
2021/04/10 04:19:46;;;;;;;1.63;1.23;;;13.00;68.80;;;;;;5103375;27;20209;-53
2021/04/10 04:22:11;;;;;;;2.00;1.50;;;12.90;68.50;;;;;;5102140;27;20200;-52
2021/04/10 04:24:37;;;;;;;2.30;1.57;;;13.10;68.90;;;;;;5108385;28;20660;-52
2021/04/10 04:27:04;;;;;;;2.67;1.60;;;12.90;69.10;;;;;;5100555;28;20227;-53
2021/04/10 04:29:29;;;;;;;1.67;1.40;;;13.00;69.60;;;;;;5102644;27;20201;-53
2021/04/10 04:31:55;;;;;;;2.50;1.87;;;12.80;69.80;;;;;;5102163;27;20186;-53
2021/04/10 04:34:21;;;;;;;1.90;1.70;;;12.90;69.80;;;;;;5108208;28;20193;-53
2021/04/10 04:36:47;;;;;;;2.63;1.50;;;13.20;70.40;;;;;;5103925;27;20655;-53
2021/04/10 04:39:13;;;;;;;1.80;1.50;;;13.00;70.10;;;;;;5097536;27;20201;-52
2021/04/10 04:41:38;;;;;;;3.80;1.60;;;12.90;70.10;;;;;;5108608;28;20189;-53
2021/04/10 04:44:04;;;;;;;3.20;1.33;;;12.90;70.20;;;;;;5100971;27;20186;-52
2021/04/10 04:46:30;;;;;;;1.73;1.60;;;12.90;69.80;;;;;;5120288;27;20926;-53
2021/04/10 04:48:55;;;;;;;2.23;1.33;;;13.10;70.20;;;;;;5102138;27;21022;-53
2021/04/10 04:51:21;;;;;;;3.40;1.40;;;12.80;70.00;;;;;;5093024;28;20191;-53
2021/04/10 04:53:47;;;;;;;1.40;1.30;;;12.80;70.20;;;;;;5102837;27;20272;-53
2021/04/10 04:56:13;;;;;;;1.15;1.05;;;12.70;70.20;;;;;;5107008;27;20573;-53
2021/04/10 04:58:39;;;;;;;1.90;1.40;;;12.80;70.70;;;;;;5106477;28;20204;-53
2021/04/10 05:01:04;;;;;;;2.13;1.30;;;12.60;70.50;;;;;;5104619;28;20966;-52
2021/04/10 05:03:30;;;;;;;3.77;1.40;;;12.60;71.20;;;;;;5105322;27;20186;-52
2021/04/10 05:05:56;;;;;;;1.60;1.50;;;12.50;72.80;;;;;;5104875;28;20230;-53
2021/04/10 05:08:21;;;;;;;2.63;1.43;;;12.40;74.90;;;;;;5113224;27;20284;-53
2021/04/10 05:10:47;;;;;;;2.30;1.80;;;12.30;77.60;;;;;;5099701;28;20249;-53
2021/04/10 05:13:13;;;;;;;5.30;1.53;;;12.30;81.50;;;;;;5103012;28;20253;-53
2021/04/10 05:15:38;;;;;;;1.87;1.50;;;11.90;82.60;;;;;;5111454;28;20552;-53
2021/04/10 05:18:04;;;;;;;1.77;1.40;;;11.90;83.70;;;;;;5115303;27;20224;-53
2021/04/10 05:20:30;;;;;;;2.07;1.60;;;11.80;85.00;;;;;;5104107;28;20456;-53
2021/04/10 05:22:56;;;;;;;1.87;1.40;;;11.70;86.00;;;;;;5102041;28;20919;-52
2021/04/10 05:25:23;;;;;;;1.95;1.48;;;11.60;86.70;;;;;;5100720;28;20182;-53
2021/04/10 05:27:52;;;;;;;1.63;1.40;;;11.60;86.30;;;;;;5114039;28;20181;-52
2021/04/10 05:30:19;;;;;;;2.15;1.77;;;11.70;86.30;;;;;;5107403;28;20300;-53
2021/04/10 05:32:47;;;;;;;1.73;1.33;;;11.70;86.50;;;;;;5104535;28;20189;-53
2021/04/10 05:35:17;;;;;;;3.80;1.45;;;11.90;86.50;;;;;;5128762;28;20187;-53
2021/04/10 05:37:43;;;;;;;1.75;1.50;;;11.60;86.20;;;;;;5107754;28;20220;-53
2021/04/10 05:40:10;;;;;;;1.63;1.48;;;11.80;86.00;;;;;;5114276;28;20209;-52
2021/04/10 05:42:35;;;;;;;1.50;1.40;;;11.80;85.00;;;;;;5101763;28;20669;-53
2021/04/10 05:45:01;;;;;;;2.07;1.87;;;11.90;85.00;;;;;;5108925;28;20181;-53
2021/04/10 05:47:27;;;;;;;2.73;1.60;;;12.00;84.40;;;;;;5106663;28;20191;-53
2021/04/10 05:49:53;;;;;;;2.57;1.60;;;12.10;84.80;;;;;;5098834;28;20488;-53
2021/04/10 05:52:19;;;;;;;3.00;1.50;;;11.80;83.70;;;;;;5102188;28;20283;-52
2021/04/10 05:54:44;;;;;;;2.73;1.90;;;11.50;83.00;;;;;;5099127;28;20487;-52
2021/04/10 05:57:10;;;;;;;2.77;1.57;;;12.10;83.60;;;;;;5107070;28;20677;-53
2021/04/10 05:59:36;;;;;;;1.47;1.30;;;11.90;82.90;;;;;;5104030;28;20294;-53
2021/04/10 06:02:06;;;;;;;4.63;1.60;;;12.00;82.80;;;;;;5105416;28;20181;-53
2021/04/10 06:04:36;;;;;;;1.42;1.25;;;11.80;82.10;;;;;;5104411;28;20182;-53
2021/04/10 06:07:02;;;;;;;4.65;1.67;;;12.20;82.30;;;;;;5103360;28;20316;-53
2021/04/10 06:09:28;;;;;;;1.20;1.10;;;12.00;81.30;;;;;;5099166;28;20569;-53
2021/04/10 06:11:54;;;;;;;2.00;1.77;;;12.20;80.90;;;;;;5104750;28;20185;-52
2021/04/10 06:14:20;;;;;;;2.13;1.60;;;12.30;80.70;;;;;;5099811;27;20431;-52
2021/04/10 06:16:47;;;;;;;2.45;1.30;;;11.90;80.40;;;;;;5107732;28;20337;-53
2021/04/10 06:19:13;;;;;;;1.70;1.60;;;12.10;80.70;;;;;;5096999;28;20299;-53
2021/04/10 06:21:39;;;;;;;4.03;1.53;;;12.20;80.20;;;;;;5101896;28;20662;-52
2021/04/10 06:24:05;;;;;;;2.37;1.50;;;12.40;80.60;;;;;;5116332;28;20194;-52
2021/04/10 06:26:30;;;;;;;1.75;1.65;;;12.40;80.40;;;;;;5099552;28;20188;-52
2021/04/10 06:28:56;;;;;;;2.73;1.60;;;12.10;80.30;;;;;;5103737;28;20208;-53
2021/04/10 06:31:22;;;;;;;2.00;1.70;;;12.20;80.40;;;;;;5106756;27;20779;-52
2021/04/10 06:33:47;;;;;;;1.50;1.30;;;12.20;80.50;;;;;;5108478;27;20742;-52
2021/04/10 06:36:13;;;;;;;1.53;1.40;;;12.30;80.30;;;;;;5129895;27;20196;-52
2021/04/10 06:38:39;;;;;;;2.60;1.50;;;12.30;80.10;;;;;;5124024;27;20207;-52
2021/04/10 06:41:05;;;;;;;3.75;1.70;;;12.50;80.50;;;;;;5111667;27;20554;-53
2021/04/10 06:43:31;;;;;;;3.10;1.50;;;12.20;80.60;;;;;;5110137;27;20191;-53
2021/04/10 06:45:58;;;;;;;2.80;1.50;;;12.40;80.90;;;;;;5113329;27;20182;-53
2021/04/10 06:48:27;;;;;;;2.08;1.40;;;12.40;80.90;;;;;;5110222;27;20544;-54
2021/04/10 06:50:53;;;;;;;1.40;1.30;;;12.00;80.30;;;;;;5104107;27;20658;-53
2021/04/10 06:53:21;;;;;;;7.35;1.92;;;12.30;80.60;;;;;;5109207;27;20210;-53
2021/04/10 06:55:52;;;;;;;2.92;1.65;;;12.60;81.20;;;;;;5106257;27;20190;-53
2021/04/10 06:58:23;;;;;;;2.03;1.38;;;12.30;81.30;;;;;;5112684;27;20214;-51
2021/04/10 07:00:53;;;;;;;4.20;1.80;;;12.30;81.50;;;;;;5124829;27;20209;-52
2021/04/10 07:03:19;;;;;;;2.95;1.40;;;12.40;82.90;;;;;;5105121;27;20195;-52
2021/04/10 07:05:44;;;;;;;1.67;1.53;;;12.40;84.30;;;;;;5106716;27;20188;-52
2021/04/10 07:08:11;;;;;;;2.67;1.90;;;12.40;87.60;;;;;;5100411;27;20413;-51
2021/04/10 07:10:36;;;;;;;2.67;1.90;;;12.30;88.80;;;;;;5098362;27;20203;-51
2021/04/10 07:13:02;;;;;;;3.20;1.83;;;12.40;88.80;;;;;;5106766;27;20230;-52
2021/04/10 07:15:28;;;;;;;1.80;1.70;;;12.40;88.60;;;;;;5104125;27;20202;-52
2021/04/10 07:17:54;;;;;;;1.73;1.40;;;12.40;88.30;;;;;;5105735;27;20741;-51
2021/04/10 07:20:24;;;;;;;1.65;1.55;;;12.40;87.40;;;;;;5106106;27;20234;-52
2021/04/10 07:23:20;;;;;;;5.40;1.75;;;12.30;87.80;;;;;;5104826;28;20643;-51
2021/04/10 07:25:46;;;;;;;2.30;1.52;;;12.40;87.10;;;;;;5082488;27;20191;-52
2021/04/10 07:28:25;;;;;;;1.87;1.70;;;12.40;87.20;;;;;;5108464;27;20276;-52
2021/04/10 07:31:05;;;;;;;1.80;1.70;;;12.50;87.20;;;;;;5111793;27;20199;-52
2021/04/10 07:33:32;;;;;;;3.15;1.80;;;12.40;87.10;;;;;;5101905;27;20687;-52
2021/04/10 07:36:01;;;;;;;2.50;1.88;;;12.60;85.50;;;;;;5122556;27;20539;-52
2021/04/10 07:38:35;;;;;;;1.90;1.60;;;12.60;85.00;;;;;;5101072;27;20204;-52
2021/04/10 07:41:11;;;;;;;2.55;1.52;;;12.50;86.30;;;;;;5097858;27;20219;-52
2021/04/10 07:43:38;;;;;;;2.95;1.67;;;12.80;85.00;;;;;;5104209;27;20673;-52
2021/04/10 07:46:16;;;;;;;2.25;1.60;;;12.50;85.00;;;;;;5110866;27;20545;-52
2021/04/10 07:49:00;;;;;;;2.00;1.90;;;12.30;84.30;;;;;;5108892;27;20181;-52
2021/04/10 07:51:27;;;;;;;2.30;1.58;;;12.60;85.30;;;;;;5104762;27;20185;-52
2021/04/10 07:53:53;;;;;;;2.78;2.08;;;12.50;84.80;;;;;;5103602;27;20212;-52
2021/04/10 07:56:19;;;;;;;4.43;1.75;;;12.40;84.30;;;;;;5101214;27;20187;-53
2021/04/10 07:58:44;;;;;;;1.80;1.60;;;12.40;84.10;;;;;;5098945;27;20209;-53
2021/04/10 08:01:11;;;;;;;2.60;1.50;;;12.80;84.90;;;;;;5103707;27;20523;-56
2021/04/10 08:03:41;;;;;;;4.20;3.53;;;12.50;84.30;;;;;;5103108;27;20186;-54
2021/04/10 08:06:06;;;;;;;1.90;1.50;;;12.40;84.80;;;;;;5103873;28;20185;-54
2021/04/10 08:08:33;;;;;;;2.60;1.70;;;12.70;86.40;;;;;;5100967;27;20193;-54
2021/04/10 08:11:06;;;;;;;1.60;1.50;;;12.60;87.80;;;;;;5101207;27;20259;-54
2021/04/10 08:13:33;;;;;;;1.63;1.52;;;12.60;88.60;;;;;;5107513;27;20192;-55
2021/04/10 08:16:18;;;;;;;1.60;1.50;;;12.50;90.10;;;;;;5098939;27;20226;-54
2021/04/10 08:18:48;;;;;;;2.20;1.95;;;12.20;91.80;;;;;;5104913;27;20365;-54
2021/04/10 08:21:19;;;;;;;2.72;1.95;;;12.20;91.70;;;;;;5101348;28;20193;-54
2021/04/10 08:23:45;;;;;;;2.10;1.90;;;12.20;91.40;;;;;;5124131;27;20188;-55
2021/04/10 08:26:13;;;;;;;2.03;1.50;;;12.40;91.40;;;;;;5098947;27;20184;-54
2021/04/10 08:28:38;;;;;;;1.50;1.40;;;12.40;91.40;;;;;;5112035;27;20181;-55
2021/04/10 08:31:05;;;;;;;1.70;1.60;;;12.30;90.90;;;;;;5110387;27;20669;-54
2021/04/10 08:33:32;;;;;;;3.47;1.50;;;12.50;91.90;;;;;;5106185;27;20410;-55
2021/04/10 08:36:02;;;;;;;2.03;1.73;;;12.30;91.00;;;;;;5103222;28;20184;-54
2021/04/10 08:38:31;;;;;;;2.00;1.67;;;12.30;90.60;;;;;;5096266;27;20291;-54
2021/04/10 08:41:00;;;;;;;1.45;1.35;;;12.40;90.20;;;;;;5102419;27;20204;-54
2021/04/10 08:43:27;;;;;;;2.65;1.73;;;12.40;90.20;;;;;;5110529;27;20720;-54
2021/04/10 08:45:54;;;;;;;1.77;1.40;;;12.60;90.40;;;;;;5100219;27;20195;-55
2021/04/10 08:48:22;;;;;;;1.98;1.80;;;12.60;90.30;;;;;;5102959;27;20200;-54
2021/04/10 08:50:52;;;;;;;2.72;1.60;;;12.60;90.30;;;;;;5107091;27;20666;-54
2021/04/10 08:53:23;;;;;;;2.65;1.55;;;12.50;90.10;;;;;;5105797;27;20221;-55
2021/04/10 08:55:51;;;;;;;1.40;1.30;;;12.60;90.20;;;;;;5129328;27;20633;-54
2021/04/10 08:58:35;;;;;;;3.65;1.90;;;12.70;89.40;;;;;;5101598;27;20212;-54
2021/04/10 09:01:26;;;;;;;1.67;1.58;;;12.70;89.70;;;;;;5103102;27;20214;-55
2021/04/10 09:03:55;;;;;;;2.55;1.33;;;12.50;88.30;;;;;;5093583;27;20193;-52
2021/04/10 09:06:30;;;;;;;1.42;1.20;;;12.50;88.70;;;;;;5102920;27;20183;-52
2021/04/10 09:09:19;;;;;;;2.25;1.60;;;12.50;88.60;;;;;;5100320;27;20206;-52
2021/04/10 09:12:19;;;;;;;1.40;1.30;;;12.80;87.60;;;;;;5091683;27;20193;-52
2021/04/10 09:14:46;;;;;;;1.33;1.23;;;13.00;87.90;;;;;;5097878;28;20189;-52
2021/04/10 09:17:12;;;;;;;1.55;1.20;;;12.90;87.00;;;;;;5106262;28;20575;-52
2021/04/10 09:19:37;;;;;;;1.60;1.50;;;13.00;86.30;;;;;;5099692;28;20626;-53
2021/04/10 09:22:03;;;;;;;1.10;1.00;;;13.20;85.40;;;;;;5098660;28;20526;-53
2021/04/10 09:24:42;;;;;;;1.90;1.70;;;13.00;83.80;;;;;;5093514;28;20273;-53
2021/04/10 09:27:20;;;;;;;2.25;1.40;;;13.10;84.10;;;;;;5100917;28;20186;-52
2021/04/10 09:29:48;;;;;;;3.47;1.52;;;13.30;83.70;;;;;;5098349;28;20217;-52
2021/04/10 09:32:27;;;;;;;1.63;1.02;;;13.30;81.20;;;;;;5101833;28;20280;-52
2021/04/10 09:34:54;;;;;;;1.20;1.10;;;13.50;81.40;;;;;;5104282;28;20192;-54
2021/04/10 09:37:19;;;;;;;10.10;2.10;;;13.50;81.30;;;;;;5108355;28;20213;-52
2021/04/10 09:40:05;;;;;;;1.77;1.53;;;13.30;81.10;;;;;;5098292;28;20206;-52
2021/04/10 09:42:34;;;;;;;2.35;1.10;;;13.80;81.40;;;;;;5093745;28;20179;-52
2021/04/10 09:45:10;;;;;;;2.42;1.40;;;13.30;80.00;;;;;;5105307;28;20736;-53
2021/04/10 09:47:54;;;;;;;1.40;1.00;;;13.50;80.00;;;;;;5126359;28;20200;-52
2021/04/10 09:50:29;;;;;;;1.73;1.20;;;13.50;79.80;;;;;;5098930;28;20225;-52
2021/04/10 09:52:59;;;;;;;1.55;1.35;;;13.40;79.80;;;;;;5099965;28;20207;-52
2021/04/10 09:55:27;;;;;;;2.45;1.33;;;13.70;79.70;;;;;;5096337;28;20186;-51
2021/04/10 09:58:02;;;;;;;1.48;1.05;;;13.70;79.50;;;;;;5099626;28;20237;-53
2021/04/10 10:00:52;;;;;;;1.92;1.83;;;13.90;79.60;;;;;;5099855;28;20218;-53
2021/04/10 10:03:20;;;;;;;1.38;1.02;;;14.10;78.70;;;;;;5106716;28;20190;-52
2021/04/10 10:05:47;;;;;;;2.22;1.38;;;13.80;78.30;;;;;;5104217;27;20194;-52
2021/04/10 10:08:15;;;;;;;2.00;1.55;;;14.00;77.70;;;;;;5108418;27;20700;-52
2021/04/10 10:10:43;;;;;;;1.27;1.17;;;14.10;77.70;;;;;;5105462;27;20802;-53
2021/04/10 10:13:15;;;;;;;1.48;1.13;;;14.00;77.50;;;;;;5107880;27;20531;-53
2021/04/10 10:15:42;;;;;;;1.63;1.40;;;14.00;77.80;;;;;;5107572;27;20314;-52
2021/04/10 10:18:31;;;;;;;1.40;1.27;;;14.00;77.30;;;;;;5108215;27;20214;-53
2021/04/10 10:21:15;;;;;;;1.52;0.90;;;14.30;76.80;;;;;;5097193;27;20210;-53
2021/04/10 10:23:40;;;;;;;2.08;1.30;;;14.40;76.20;;;;;;5105195;27;20201;-52
2021/04/10 10:26:13;;;;;;;1.30;1.10;;;14.50;75.70;;;;;;5110475;27;20650;-52
2021/04/10 10:28:42;;;;;;;2.30;1.20;;;14.50;75.80;;;;;;5126177;27;20613;-53
2021/04/10 10:31:22;;;;;;;2.08;1.25;;;14.40;77.20;;;;;;5099505;27;20186;-52
2021/04/10 10:33:48;;;;;;;1.30;1.20;;;14.40;76.10;;;;;;5102074;27;20475;-52
2021/04/10 10:36:16;;;;;;;1.30;1.20;;;14.30;75.50;;;;;;5109333;27;20232;-53
2021/04/10 10:38:46;;;;;;;1.27;1.00;;;14.30;75.10;;;;;;5101185;27;20742;-53
2021/04/10 10:41:14;;;;;;;3.05;1.50;;;14.40;74.30;;;;;;5103426;27;20214;-53
2021/04/10 10:43:44;;;;;;;1.65;1.13;;;14.60;74.20;;;;;;5106916;27;20314;-53
2021/04/10 10:46:16;;;;;;;1.95;1.30;;;14.70;74.80;;;;;;5107555;27;20642;-52
2021/04/10 10:48:41;;;;;;;1.70;1.58;;;14.70;73.60;;;;;;5103276;27;20234;-53
2021/04/10 10:51:13;;;;;;;1.27;1.17;;;14.50;73.30;;;;;;5102982;27;20214;-54
2021/04/10 10:53:40;;;;;;;2.92;1.52;;;15.00;73.20;;;;;;5102308;27;20673;-53
2021/04/10 10:56:14;;;;;;;2.90;1.52;;;15.20;72.50;;;;;;5101603;27;20183;-52
2021/04/10 10:58:45;;;;;;;1.55;1.25;;;15.30;71.40;;;;;;5101040;27;20237;-52
2021/04/10 11:01:15;;;;;;;2.17;1.40;;;15.50;70.80;;;;;;5105893;27;20559;-52
2021/04/10 11:04:24;;;;;;;1.40;1.30;;;15.30;70.90;;;;;;5104136;27;20171;-53
2021/04/10 11:06:55;;;;;;;1.60;1.20;;;15.70;70.80;;;;;;5104209;27;20176;-52
2021/04/10 11:09:22;;;;;;;1.20;1.10;;;15.50;69.40;;;;;;5108060;27;20626;-50
2021/04/10 11:11:49;;;;;;;1.48;1.35;;;15.70;69.50;;;;;;5106465;27;20194;-51
2021/04/10 11:14:39;;;;;;;2.50;1.60;;;16.00;68.40;;;;;;5101765;27;20241;-51
2021/04/10 11:17:05;;;;;;;2.50;1.73;;;16.00;68.40;;;;;;5099724;27;20241;-51
2021/04/10 11:19:35;;;;;;;5.30;1.57;;;16.20;67.60;;;;;;5105906;27;20194;-50
2021/04/10 11:22:07;;;;;;;1.40;1.20;;;16.20;66.50;;;;;;5105962;27;20181;-51
2021/04/10 11:24:42;;;;;;;2.75;1.65;;;16.30;66.40;;;;;;5107506;27;20182;-50
2021/04/10 11:27:15;;;;;;;1.52;1.10;;;16.30;66.40;;;;;;5110791;27;20191;-51
2021/04/10 11:29:59;;;;;;;1.30;1.10;;;16.80;66.40;;;;;;5102991;27;20262;-50
2021/04/10 11:32:40;;;;;;;1.90;1.15;;;16.80;65.00;;;;;;5107357;27;20186;-50
2021/04/10 11:35:20;;;;;;;2.53;1.02;;;16.90;64.60;;;;;;5108210;27;20198;-49
2021/04/10 11:37:54;;;;;;;1.40;1.30;;;16.90;64.50;;;;;;5106295;28;20195;-50
2021/04/10 11:40:30;;;;;;;1.48;1.13;;;16.90;64.30;;;;;;5097061;27;20238;-49
2021/04/10 11:43:05;;;;;;;1.23;1.00;;;17.10;64.20;;;;;;5105052;28;20187;-50
2021/04/10 11:45:42;;;;;;;1.92;1.60;;;17.30;62.60;;;;;;5109604;27;20686;-49
2021/04/10 11:48:11;;;;;;;6.35;1.67;;;17.30;62.10;;;;;;5102195;27;20187;-49
2021/04/10 11:50:41;;;;;;;1.42;1.27;;;17.30;62.30;;;;;;5102879;27;20216;-49
2021/04/10 11:53:23;;;;;;;3.20;1.60;;;17.50;61.30;;;;;;5101029;27;20668;-49
2021/04/10 11:55:50;;;;;;;1.20;1.10;;;17.10;62.00;;;;;;5101050;27;20172;-50
2021/04/10 11:58:31;;;;;;;0.80;0.80;;;17.00;62.50;;;;;;5102820;27;20222;-50
2021/04/10 12:01:10;;;;;;;1.13;1.02;;;17.30;62.30;;;;;;5104482;27;20198;-50
2021/04/10 12:03:52;;;;;;;1.85;1.30;;;17.30;61.30;;;;;;5107833;28;20189;-49
2021/04/10 12:06:27;;;;;;;2.05;1.85;;;17.30;61.10;;;;;;5104389;27;20783;-49
2021/04/10 12:08:52;;;;;;;3.58;1.10;;;17.40;62.10;;;;;;5102023;27;20185;-49
2021/04/10 12:11:18;;;;;;;1.87;1.23;;;17.30;62.00;;;;;;5109221;27;20189;-49
2021/04/10 12:13:43;;;;;;;1.40;1.30;;;17.50;61.90;;;;;;5096259;28;20610;-49
2021/04/10 12:16:09;;;;;;;1.20;1.10;;;17.60;61.20;;;;;;5096710;27;20195;-50
2021/04/10 12:18:35;;;;;;;1.93;1.40;;;17.50;60.50;;;;;;5108035;28;20199;-49
2021/04/10 12:21:01;;;;;;;1.00;0.90;;;17.50;60.60;;;;;;5101607;27;20215;-50
2021/04/10 12:23:27;;;;;;;1.10;0.98;;;17.80;60.30;;;;;;5110975;27;20549;-49
2021/04/10 12:25:53;;;;;;;1.33;1.00;;;18.10;59.50;;;;;;5100428;27;20179;-50
2021/04/10 12:28:20;;;;;;;0.97;0.80;;;18.30;58.70;;;;;;5106658;27;20178;-50
2021/04/10 12:30:46;;;;;;;1.25;0.95;;;18.40;58.70;;;;;;5094049;28;20199;-50
2021/04/10 12:33:11;;;;;;;2.05;1.00;;;18.70;57.90;;;;;;5094882;27;20193;-50
2021/04/10 12:35:37;;;;;;;2.33;0.93;;;18.60;57.30;;;;;;5100291;27;20187;-50
2021/04/10 12:38:03;;;;;;;2.00;1.20;;;18.70;57.40;;;;;;5106097;27;20679;-50
2021/04/10 12:40:30;;;;;;;0.80;0.80;;;18.70;56.80;;;;;;5108026;27;20912;-50
2021/04/10 12:42:56;;;;;;;1.23;1.10;;;18.90;56.20;;;;;;5094029;28;20568;-50
2021/04/10 12:45:22;;;;;;;2.57;1.70;;;19.10;56.80;;;;;;5103749;27;20178;-51
2021/04/10 12:47:48;;;;;;;1.95;1.42;;;19.20;55.90;;;;;;5109140;27;20197;-51
2021/04/10 12:50:18;;;;;;;2.30;1.40;;;18.90;55.40;;;;;;5111556;27;20214;-50
2021/04/10 12:52:44;;;;;;;1.52;1.15;;;18.70;56.20;;;;;;5107806;27;20945;-50
2021/04/10 12:55:12;;;;;;;1.52;1.30;;;19.00;55.80;;;;;;5105080;27;20209;-49
2021/04/10 12:57:37;;;;;;;1.38;1.20;;;18.80;55.50;;;;;;5122369;27;20396;-51
2021/04/10 13:00:06;;;;;;;1.40;1.30;;;19.00;54.50;;;;;;5109240;27;20250;-50